Time;durP1;ratioP1;P1;durP2;ratioP2;P2;SDS_P1;SDS_P2;PMS_P1;PMS_P2;Temp;Humidity;BMP_temperature;BMP_pressure;BME280_temperature;BME280_humidity;BME280_pressure;Samples;Min_cycle;Max_cycle;Signal;HPM_P1;HPM_P2
2022/03/21 00:02:07;;;;;;;11.50;8.73;;;10.10;44.70;;;;;;5032387;28;20038;-80
2022/03/21 00:04:33;;;;;;;7.78;6.97;;;10.10;44.80;;;;;;5015638;28;20060;-80
2022/03/21 00:06:59;;;;;;;12.43;8.90;;;10.00;45.10;;;;;;5022409;28;20033;-80
2022/03/21 00:09:25;;;;;;;10.60;8.80;;;10.00;45.20;;;;;;5024145;28;20026;-80
2022/03/21 00:11:53;;;;;;;10.52;7.95;;;9.90;45.10;;;;;;5028038;28;20048;-80
2022/03/21 00:14:19;;;;;;;8.70;7.53;;;9.90;45.20;;;;;;5030814;28;20041;-80
2022/03/21 00:16:46;;;;;;;9.20;7.68;;;9.70;45.50;;;;;;5024129;28;20052;-80
2022/03/21 00:19:12;;;;;;;11.98;8.35;;;9.70;45.70;;;;;;5025864;28;20026;-80
2022/03/21 00:21:38;;;;;;;10.90;7.93;;;9.50;45.90;;;;;;5018452;28;20034;-80
2022/03/21 00:24:05;;;;;;;11.70;8.10;;;9.30;47.00;;;;;;5024417;28;20041;-80
2022/03/21 00:26:31;;;;;;;12.57;9.00;;;9.10;47.10;;;;;;5019260;28;20049;-81
2022/03/21 00:28:58;;;;;;;16.52;7.95;;;8.90;47.90;;;;;;5026493;28;20045;-81
2022/03/21 00:31:24;;;;;;;10.63;8.23;;;8.70;49.60;;;;;;5012073;28;20043;-82
2022/03/21 00:33:50;;;;;;;10.98;7.28;;;8.50;50.00;;;;;;5015130;28;20034;-81
2022/03/21 00:36:16;;;;;;;9.85;7.47;;;8.20;50.50;;;;;;5019550;28;20387;-81
2022/03/21 00:38:44;;;;;;;12.65;7.40;;;8.00;51.80;;;;;;5016307;28;20029;-81
2022/03/21 00:41:10;;;;;;;8.20;7.47;;;7.70;52.40;;;;;;5026921;28;20045;-81
2022/03/21 00:43:36;;;;;;;12.25;8.00;;;7.60;53.10;;;;;;5021896;28;20026;-81
2022/03/21 00:46:03;;;;;;;10.40;7.88;;;7.40;53.90;;;;;;5021762;28;20040;-81
2022/03/21 00:48:30;;;;;;;11.52;9.23;;;7.20;54.20;;;;;;5026289;28;20041;-81
2022/03/21 00:50:58;;;;;;;13.30;9.70;;;7.10;54.90;;;;;;5027963;28;20037;-80
2022/03/21 00:53:24;;;;;;;9.20;8.30;;;7.00;54.20;;;;;;5017163;28;20113;-81
2022/03/21 00:55:52;;;;;;;10.23;9.23;;;6.90;54.50;;;;;;5018862;28;20203;-81
2022/03/21 00:58:19;;;;;;;9.55;8.25;;;6.80;55.10;;;;;;5021721;28;20030;-80
2022/03/21 01:00:46;;;;;;;12.63;8.73;;;6.70;55.00;;;;;;5011757;28;20483;-79
2022/03/21 01:03:12;;;;;;;12.60;9.70;;;6.60;55.30;;;;;;5029752;28;20041;-80
2022/03/21 01:05:39;;;;;;;14.10;9.40;;;6.50;56.50;;;;;;5034136;28;20029;-79
2022/03/21 01:08:05;;;;;;;11.57;9.73;;;6.50;56.30;;;;;;5029906;28;20033;-79
2022/03/21 01:10:32;;;;;;;9.70;8.70;;;6.50;56.90;;;;;;5022208;28;20041;-79
2022/03/21 01:12:59;;;;;;;12.20;10.50;;;6.50;56.10;;;;;;5015339;28;20042;-79
2022/03/21 01:15:27;;;;;;;18.25;8.32;;;6.40;56.60;;;;;;5025586;28;20065;-79
2022/03/21 01:17:55;;;;;;;9.25;8.35;;;6.40;57.30;;;;;;5018629;28;20029;-80
2022/03/21 01:20:22;;;;;;;11.32;8.68;;;6.20;56.80;;;;;;5030233;28;20030;-81
2022/03/21 01:22:49;;;;;;;13.65;9.00;;;6.20;56.80;;;;;;5027546;28;20038;-81
2022/03/21 01:25:16;;;;;;;10.35;8.48;;;6.00;56.80;;;;;;5029469;28;20034;-81
2022/03/21 01:27:43;;;;;;;10.75;8.57;;;5.80;57.70;;;;;;5021227;28;20037;-82
2022/03/21 01:30:11;;;;;;;10.95;8.88;;;5.70;58.30;;;;;;5015167;28;20134;-81
2022/03/21 01:32:42;;;;;;;11.00;8.85;;;5.60;58.60;;;;;;5030678;28;20040;-81
2022/03/21 01:35:10;;;;;;;10.20;8.93;;;5.40;59.30;;;;;;5020875;28;20049;-81
2022/03/21 01:37:36;;;;;;;12.23;9.20;;;5.50;60.10;;;;;;5015520;28;20037;-81
2022/03/21 01:40:03;;;;;;;10.10;8.35;;;5.40;60.00;;;;;;5029065;28;20468;-82
2022/03/21 01:42:29;;;;;;;11.80;10.55;;;5.40;59.80;;;;;;5014633;28;20057;-80
2022/03/21 01:44:57;;;;;;;15.32;9.57;;;5.40;59.70;;;;;;5018059;28;20033;-81
2022/03/21 01:47:24;;;;;;;9.65;8.68;;;5.30;59.80;;;;;;5028179;28;20053;-81
2022/03/21 01:49:51;;;;;;;10.15;8.95;;;5.10;60.00;;;;;;5029493;28;20033;-82
2022/03/21 01:52:20;;;;;;;15.55;9.52;;;5.10;60.30;;;;;;5014756;28;20034;-81
2022/03/21 01:57:32;;;;;;;12.95;8.50;;;4.80;62.30;;;;;;5013364;28;20049;-81
2022/03/21 02:00:00;;;;;;;9.98;8.75;;;4.80;62.40;;;;;;5017281;28;20041;-82
2022/03/21 02:02:26;;;;;;;11.90;9.25;;;4.70;62.60;;;;;;5014459;28;20041;-82
2022/03/21 02:04:52;;;;;;;15.35;9.60;;;4.70;62.50;;;;;;5030695;28;20033;-82
2022/03/21 02:07:18;;;;;;;10.52;9.40;;;4.70;62.80;;;;;;5022668;28;20041;-82
2022/03/21 02:09:45;;;;;;;9.95;8.75;;;4.60;63.80;;;;;;5013970;28;20041;-81
2022/03/21 02:12:13;;;;;;;10.98;9.85;;;4.40;64.20;;;;;;5023792;28;20033;-82
2022/03/21 02:14:40;;;;;;;10.43;9.25;;;4.40;65.10;;;;;;5030181;28;20489;-81
2022/03/21 02:17:10;;;;;;;10.07;8.77;;;4.30;65.00;;;;;;5016874;28;20467;-82
2022/03/21 02:19:38;;;;;;;12.47;9.80;;;4.40;64.50;;;;;;5019579;28;20026;-81
2022/03/21 02:22:27;;;;;;;11.38;9.40;;;4.20;64.90;;;;;;5029936;28;20052;-82
2022/03/21 02:25:31;;;;;;;10.38;9.38;;;4.10;65.40;;;;;;5029501;28;20060;-82
2022/03/21 02:28:01;;;;;;;10.18;9.00;;;4.20;63.80;;;;;;5019505;28;20029;-82
2022/03/21 02:30:29;;;;;;;12.40;9.90;;;4.20;63.50;;;;;;5022033;28;20049;-82
2022/03/21 02:32:56;;;;;;;13.43;9.10;;;4.10;64.40;;;;;;5006256;28;20053;-82
2022/03/21 02:35:24;;;;;;;15.73;9.63;;;4.10;64.20;;;;;;5021526;28;20498;-81
2022/03/21 02:37:52;;;;;;;20.10;9.93;;;4.10;64.90;;;;;;5025911;28;20041;-82
2022/03/21 02:40:18;;;;;;;9.98;8.98;;;4.10;65.10;;;;;;5029231;28;20029;-82
2022/03/21 02:42:46;;;;;;;12.73;9.90;;;4.20;65.90;;;;;;5020405;28;20022;-82
2022/03/21 02:45:12;;;;;;;10.60;9.13;;;4.20;64.90;;;;;;5017281;28;20034;-83
2022/03/21 02:47:38;;;;;;;11.02;9.88;;;4.10;65.10;;;;;;5026026;28;20037;-82
2022/03/21 02:50:08;;;;;;;10.73;9.32;;;4.10;65.10;;;;;;5031587;28;20046;-82
2022/03/21 02:52:36;;;;;;;12.93;10.30;;;4.10;65.30;;;;;;5012463;28;20045;-82
2022/03/21 02:55:03;;;;;;;10.80;9.48;;;4.00;65.90;;;;;;5015024;28;20273;-82
2022/03/21 02:57:31;;;;;;;13.93;9.98;;;3.90;67.50;;;;;;5020538;28;20037;-81
2022/03/21 02:59:57;;;;;;;10.02;8.73;;;3.90;67.90;;;;;;5019084;28;20041;-81
2022/03/21 03:02:23;;;;;;;12.60;10.15;;;4.00;68.20;;;;;;5021890;28;20029;-81
2022/03/21 03:04:50;;;;;;;11.82;9.25;;;4.00;68.20;;;;;;5030284;28;20030;-81
2022/03/21 03:07:16;;;;;;;12.63;10.00;;;4.00;68.90;;;;;;5032438;28;20040;-81
2022/03/21 03:09:42;;;;;;;10.88;9.77;;;4.00;69.50;;;;;;5013658;28;20030;-81
2022/03/21 03:12:08;;;;;;;16.92;9.40;;;4.10;69.40;;;;;;5019851;28;20029;-81
2022/03/21 03:14:35;;;;;;;11.05;9.80;;;4.10;69.90;;;;;;5024857;28;20034;-81
2022/03/21 03:17:01;;;;;;;10.05;8.73;;;4.10;70.10;;;;;;5030318;28;20041;-81
2022/03/21 03:19:28;;;;;;;13.93;9.95;;;4.20;69.40;;;;;;5031230;28;20033;-82
2022/03/21 03:21:55;;;;;;;12.30;9.75;;;4.20;69.30;;;;;;5026597;28;20036;-82
2022/03/21 03:24:26;;;;;;;12.07;10.10;;;4.30;68.50;;;;;;5018176;28;20467;-81
2022/03/21 03:26:53;;;;;;;17.17;10.75;;;4.30;68.30;;;;;;5025634;28;20045;-81
2022/03/21 03:29:19;;;;;;;13.90;9.45;;;4.30;68.30;;;;;;5028775;28;20406;-82
2022/03/21 03:31:45;;;;;;;12.48;10.95;;;4.40;67.80;;;;;;5030204;28;20041;-82
2022/03/21 03:34:12;;;;;;;12.45;10.98;;;4.40;67.40;;;;;;5028867;28;20482;-81
2022/03/21 03:36:38;;;;;;;14.80;10.90;;;4.40;67.70;;;;;;5012375;28;20037;-82
2022/03/21 03:39:05;;;;;;;12.77;10.20;;;4.50;67.40;;;;;;5029222;28;20099;-82
2022/03/21 03:41:31;;;;;;;13.93;10.38;;;4.40;67.30;;;;;;5030957;28;20377;-82
2022/03/21 03:43:58;;;;;;;13.80;11.70;;;4.30;67.20;;;;;;5025660;28;20362;-81
2022/03/21 03:46:24;;;;;;;12.68;9.55;;;4.30;67.60;;;;;;5001932;28;20049;-82
2022/03/21 03:48:54;;;;;;;12.07;10.90;;;4.30;68.00;;;;;;5027653;28;20378;-81
2022/03/21 03:51:20;;;;;;;11.38;10.25;;;4.20;68.40;;;;;;5027611;28;20037;-81
2022/03/21 03:53:46;;;;;;;18.38;11.27;;;4.20;67.90;;;;;;5028805;28;20029;-81
2022/03/21 03:56:12;;;;;;;11.50;9.95;;;4.20;68.10;;;;;;5020555;28;20026;-81
2022/03/21 03:58:39;;;;;;;15.85;11.57;;;4.20;68.90;;;;;;5016866;28;20050;-81
2022/03/21 04:01:06;;;;;;;13.18;11.35;;;4.00;69.50;;;;;;5014831;28;20038;-82
2022/03/21 04:03:45;;;;;;;13.63;12.07;;;3.90;70.00;;;;;;5024794;28;20021;-81
2022/03/21 04:06:22;;;;;;;13.75;11.38;;;3.90;70.50;;;;;;5012813;28;20033;-81
2022/03/21 04:08:50;;;;;;;14.02;11.68;;;3.80;70.40;;;;;;5014968;28;20029;-81
2022/03/21 04:11:17;;;;;;;15.18;11.77;;;3.80;70.90;;;;;;5024405;28;20045;-81
2022/03/21 04:13:44;;;;;;;15.73;12.15;;;3.70;71.20;;;;;;5024538;28;20051;-81
2022/03/21 04:16:10;;;;;;;12.75;10.98;;;3.70;71.50;;;;;;5028985;28;20057;-81
2022/03/21 04:18:38;;;;;;;13.65;11.43;;;3.70;71.90;;;;;;5019251;28;20046;-81
2022/03/21 04:21:04;;;;;;;13.02;11.32;;;3.60;72.90;;;;;;5017333;28;20030;-82
2022/03/21 04:23:31;;;;;;;14.10;12.23;;;3.60;73.50;;;;;;5023283;28;20030;-82
2022/03/21 04:25:58;;;;;;;16.25;11.45;;;3.60;73.80;;;;;;5028302;28;20030;-82
2022/03/21 04:28:24;;;;;;;13.50;11.88;;;3.50;73.70;;;;;;5023597;28;20042;-81
2022/03/21 04:30:50;;;;;;;14.40;12.75;;;3.50;74.00;;;;;;5024117;28;20471;-82
2022/03/21 04:33:16;;;;;;;13.82;11.93;;;3.40;74.60;;;;;;5021778;28;20041;-81
2022/03/21 04:35:43;;;;;;;14.60;12.25;;;3.30;75.10;;;;;;5022515;28;20034;-82
2022/03/21 04:38:14;;;;;;;14.95;13.40;;;3.20;76.50;;;;;;5023930;28;20046;-81
2022/03/21 04:40:48;;;;;;;19.10;12.95;;;3.10;76.50;;;;;;5016464;28;20033;-81
2022/03/21 04:43:16;;;;;;;13.80;11.93;;;3.10;76.70;;;;;;5022377;28;20030;-81
2022/03/21 04:45:45;;;;;;;15.73;12.15;;;3.00;76.90;;;;;;5015797;28;20033;-81
2022/03/21 04:48:12;;;;;;;16.50;12.27;;;3.00;76.90;;;;;;5016302;28;20025;-81
2022/03/21 04:50:39;;;;;;;15.23;12.00;;;3.00;77.40;;;;;;5015225;28;20367;-81
2022/03/21 04:53:06;;;;;;;23.33;13.68;;;2.90;77.80;;;;;;5029677;28;20044;-81
2022/03/21 04:55:33;;;;;;;15.10;12.68;;;2.90;78.40;;;;;;5015881;28;20034;-80
2022/03/21 04:58:00;;;;;;;23.30;13.50;;;2.90;78.80;;;;;;5028040;28;20038;-81
2022/03/21 05:00:27;;;;;;;13.65;12.23;;;2.90;79.60;;;;;;5021834;28;20038;-81
2022/03/21 05:02:53;;;;;;;14.48;12.88;;;2.80;79.30;;;;;;5026056;28;20364;-82
2022/03/21 05:05:20;;;;;;;17.13;12.65;;;2.80;79.30;;;;;;5029098;28;20049;-81
2022/03/21 05:07:49;;;;;;;13.52;12.15;;;2.70;80.30;;;;;;5029681;28;20048;-81
2022/03/21 05:10:15;;;;;;;14.52;12.70;;;2.70;79.90;;;;;;5034321;28;20033;-81
2022/03/21 05:12:42;;;;;;;15.90;11.82;;;2.60;79.90;;;;;;5028083;28;20041;-82
2022/03/21 05:15:08;;;;;;;15.93;11.88;;;2.60;80.80;;;;;;5027773;28;20038;-83
2022/03/21 05:17:35;;;;;;;17.73;14.20;;;2.50;81.50;;;;;;5019693;28;20046;-81
2022/03/21 05:20:09;;;;;;;14.48;13.13;;;2.50;81.70;;;;;;5027785;28;20037;-80
2022/03/21 05:22:35;;;;;;;16.98;13.63;;;2.40;82.10;;;;;;5013624;28;20033;-81
2022/03/21 05:36:02;;;;;;;13.27;11.90;;;2.40;83.00;;;;;;5015267;28;20034;-82
2022/03/21 05:38:29;;;;;;;13.90;12.70;;;2.40;84.10;;;;;;5022066;28;20049;-83
2022/03/21 05:41:00;;;;;;;17.00;12.70;;;2.40;84.20;;;;;;5025909;28;20620;-82
2022/03/21 05:43:28;;;;;;;11.40;10.10;;;2.50;84.50;;;;;;5027500;28;20065;-80
2022/03/21 05:45:55;;;;;;;16.08;14.40;;;2.40;85.00;;;;;;5029604;28;20037;-80
2022/03/21 05:51:07;;;;;;;16.45;14.70;;;2.50;83.80;;;;;;5027740;28;20045;-81
2022/03/21 05:53:33;;;;;;;16.25;13.93;;;2.50;83.30;;;;;;5032236;28;20509;-80
2022/03/21 05:56:00;;;;;;;21.58;14.35;;;2.50;83.80;;;;;;5023247;28;20041;-80
2022/03/21 05:58:27;;;;;;;19.67;14.05;;;2.60;83.30;;;;;;5014917;28;20038;-82
2022/03/21 06:00:55;;;;;;;17.98;15.48;;;2.70;83.30;;;;;;5025123;28;20455;-81
2022/03/21 06:03:22;;;;;;;16.38;13.10;;;2.80;83.20;;;;;;5029219;28;20034;-82
2022/03/21 06:05:49;;;;;;;18.35;15.48;;;3.00;83.60;;;;;;5031141;28;20473;-82
2022/03/21 06:08:15;;;;;;;21.70;15.30;;;3.10;81.90;;;;;;5012668;28;20045;-82
2022/03/21 06:10:41;;;;;;;18.27;14.93;;;3.20;80.60;;;;;;5037644;28;20029;-81
2022/03/21 06:13:08;;;;;;;18.48;13.82;;;3.30;80.30;;;;;;5028324;28;20056;-81
2022/03/21 06:15:39;;;;;;;16.95;14.32;;;3.60;79.20;;;;;;5034463;28;20064;-81
2022/03/21 06:18:09;;;;;;;;;;;4.00;78.00;;;;;;5029399;28;20038;-82
2022/03/21 06:20:37;;;;;;;17.55;13.98;;;4.80;74.40;;;;;;5016236;28;20305;-81
2022/03/21 06:23:03;;;;;;;21.95;14.00;;;5.20;72.90;;;;;;5045729;28;20033;-82
2022/03/21 06:25:29;;;;;;;17.60;13.77;;;5.40;71.20;;;;;;5026830;28;20402;-79
2022/03/21 06:27:56;;;;;;;14.90;13.07;;;5.30;70.40;;;;;;5015956;28;20041;-79
2022/03/21 06:30:22;;;;;;;17.30;14.40;;;5.20;71.10;;;;;;5032277;28;20038;-78
2022/03/21 06:32:49;;;;;;;17.60;12.27;;;5.20;71.60;;;;;;5011983;28;20041;-79
2022/03/21 06:35:15;;;;;;;16.63;13.88;;;5.40;71.40;;;;;;5019168;28;20052;-78
2022/03/21 06:37:42;;;;;;;15.65;12.82;;;5.60;70.30;;;;;;5018272;28;20045;-81
2022/03/21 06:40:09;;;;;;;16.15;12.13;;;5.90;69.70;;;;;;5022520;28;20466;-82
2022/03/21 06:42:36;;;;;;;18.27;13.90;;;6.20;68.90;;;;;;5014653;28;20045;-81
2022/03/21 06:45:02;;;;;;;16.88;12.32;;;6.60;68.80;;;;;;5016048;28;20037;-83
2022/03/21 06:47:29;;;;;;;13.20;11.18;;;7.30;67.30;;;;;;5023380;28;20475;-80
2022/03/21 06:49:56;;;;;;;13.98;12.57;;;8.10;64.30;;;;;;5017211;28;20046;-82
2022/03/21 06:52:22;;;;;;;12.93;11.63;;;8.50;61.50;;;;;;5025839;28;20498;-81
2022/03/21 06:54:49;;;;;;;17.20;12.50;;;8.40;61.70;;;;;;5025445;28;20390;-80
2022/03/21 06:57:17;;;;;;;16.58;12.80;;;8.80;61.60;;;;;;5014851;28;20045;-81
2022/03/21 06:59:45;;;;;;;17.60;11.27;;;9.90;58.90;;;;;;5017465;28;20037;-81
2022/03/21 07:02:12;;;;;;;19.08;12.50;;;10.80;56.40;;;;;;5018937;28;20750;-81
2022/03/21 07:04:39;;;;;;;18.38;12.73;;;11.10;54.80;;;;;;5021401;28;20041;-81
2022/03/21 07:07:05;;;;;;;19.23;12.55;;;11.20;55.70;;;;;;5026060;28;20134;-81
2022/03/21 07:09:31;;;;;;;13.98;11.52;;;11.80;53.90;;;;;;5013330;28;20364;-82
2022/03/21 07:11:58;;;;;;;20.48;12.65;;;12.60;50.20;;;;;;5018479;28;20347;-81
2022/03/21 07:14:24;;;;;;;14.88;11.50;;;12.60;48.70;;;;;;5020274;28;20467;-83
2022/03/21 07:16:51;;;;;;;20.05;11.45;;;12.90;48.20;;;;;;5028761;28;20079;-83
2022/03/21 07:19:17;;;;;;;16.25;11.80;;;13.50;49.30;;;;;;5026319;28;20522;-81
2022/03/21 07:21:44;;;;;;;14.20;12.02;;;14.20;45.70;;;;;;5026284;28;20038;-80
2022/03/21 07:24:11;;;;;;;21.48;12.40;;;13.80;45.90;;;;;;5018784;28;20029;-81
2022/03/21 07:26:38;;;;;;;13.98;11.98;;;13.30;45.50;;;;;;5029191;28;20040;-80
2022/03/21 07:29:04;;;;;;;16.92;12.30;;;13.80;45.00;;;;;;5027595;28;20041;-81
2022/03/21 07:31:32;;;;;;;14.65;12.52;;;14.00;45.00;;;;;;5031399;28;20046;-81
2022/03/21 07:33:58;;;;;;;14.85;11.57;;;14.50;45.10;;;;;;5026993;28;20033;-81
2022/03/21 07:36:24;;;;;;;15.98;11.85;;;14.50;43.10;;;;;;5027102;28;20447;-81
2022/03/21 07:38:50;;;;;;;14.02;12.50;;;13.30;44.50;;;;;;5023958;28;20048;-81
2022/03/21 07:41:17;;;;;;;11.40;10.00;;;13.30;45.00;;;;;;5026133;28;20033;-81
2022/03/21 07:43:43;;;;;;;15.88;11.15;;;13.70;42.90;;;;;;5025326;28;20478;-81
2022/03/21 07:48:54;;;;;;;12.30;10.05;;;12.50;45.20;;;;;;5012716;28;20041;-81
2022/03/21 07:51:20;;;;;;;12.82;11.02;;;12.80;44.70;;;;;;5022290;28;20034;-81
2022/03/21 07:53:46;;;;;;;13.05;10.90;;;13.30;43.70;;;;;;5017000;28;20494;-81
2022/03/21 07:56:13;;;;;;;16.00;10.25;;;13.30;43.60;;;;;;5019367;28;20037;-81
2022/03/21 07:58:39;;;;;;;14.75;10.88;;;13.00;44.00;;;;;;5025687;28;20041;-81
2022/03/21 08:01:06;;;;;;;14.00;10.57;;;12.90;44.70;;;;;;5031376;28;20049;-81
2022/03/21 08:03:33;;;;;;;13.35;10.63;;;13.10;44.90;;;;;;5025774;28;20056;-81
2022/03/21 08:05:59;;;;;;;15.98;12.32;;;13.70;43.60;;;;;;5014440;28;20030;-82
2022/03/21 08:08:29;;;;;;;11.90;10.65;;;14.70;42.90;;;;;;5025453;28;20034;-81
2022/03/21 08:10:56;;;;;;;15.00;10.75;;;14.30;43.70;;;;;;5020363;28;20254;-81
2022/03/21 08:13:22;;;;;;;18.60;11.77;;;13.90;42.70;;;;;;5018501;28;20029;-81
2022/03/21 08:15:49;;;;;;;16.05;11.90;;;13.10;43.90;;;;;;5028953;28;20474;-80
2022/03/21 08:18:15;;;;;;;11.88;10.45;;;13.10;44.00;;;;;;5030847;28;20033;-80
2022/03/21 08:20:43;;;;;;;13.38;10.82;;;13.70;43.60;;;;;;5023153;28;20038;-80
2022/03/21 08:23:13;;;;;;;11.38;9.68;;;15.00;43.00;;;;;;5026392;28;20026;-80
2022/03/21 08:25:43;;;;;;;11.48;10.32;;;16.60;40.00;;;;;;5030778;28;20033;-79
2022/03/21 08:28:09;;;;;;;15.83;10.90;;;17.40;39.50;;;;;;5019747;28;20037;-79
2022/03/21 08:30:37;;;;;;;14.02;10.73;;;16.70;39.40;;;;;;5019838;28;20281;-80
2022/03/21 08:33:06;;;;;;;14.32;10.82;;;16.10;39.70;;;;;;5011898;28;20030;-80
2022/03/21 08:35:35;;;;;;;12.75;9.25;;;16.70;40.20;;;;;;5020339;28;20044;-80
2022/03/21 08:38:03;;;;;;;15.93;11.67;;;17.80;37.80;;;;;;5019838;28;20042;-81
2022/03/21 08:40:29;;;;;;;11.70;10.50;;;17.90;36.50;;;;;;5030818;28;20044;-80
2022/03/21 08:42:56;;;;;;;13.93;11.15;;;17.00;37.40;;;;;;5024233;28;20041;-80
2022/03/21 08:45:23;;;;;;;13.75;10.40;;;17.60;37.70;;;;;;5018803;28;20510;-80
2022/03/21 08:47:53;;;;;;;14.80;11.30;;;18.30;36.00;;;;;;5023576;28;20491;-80
2022/03/21 08:50:20;;;;;;;15.30;11.77;;;17.80;36.10;;;;;;5012744;28;20049;-80
2022/03/21 08:52:47;;;;;;;12.40;10.95;;;18.40;35.90;;;;;;5017280;28;20363;-84
2022/03/21 08:55:13;;;;;;;12.43;10.95;;;17.40;37.30;;;;;;5021203;28;20105;-83
2022/03/21 08:57:39;;;;;;;14.10;11.10;;;18.20;36.30;;;;;;5022823;28;20066;-80
2022/03/21 09:00:07;;;;;;;12.82;9.82;;;18.00;37.00;;;;;;5014473;28;20034;-80
2022/03/21 09:02:34;;;;;;;12.35;10.98;;;18.30;36.10;;;;;;5021841;28;20029;-80
2022/03/21 09:05:04;;;;;;;15.30;11.10;;;18.20;36.50;;;;;;5023079;28;20038;-80
2022/03/21 09:07:30;;;;;;;13.55;11.00;;;17.70;36.60;;;;;;5014033;28;20026;-81
2022/03/21 09:09:57;;;;;;;10.35;9.32;;;17.60;36.50;;;;;;5018531;28;20026;-79
2022/03/21 09:12:23;;;;;;;10.57;9.38;;;17.90;36.70;;;;;;5024644;28;20026;-80
2022/03/21 09:14:50;;;;;;;17.92;10.25;;;19.20;35.40;;;;;;5022254;28;20053;-79
2022/03/21 09:17:16;;;;;;;10.73;9.63;;;18.70;34.80;;;;;;5028929;28;20049;-80
2022/03/21 09:19:42;;;;;;;13.93;10.60;;;18.80;35.20;;;;;;5026487;28;20045;-80
2022/03/21 09:22:08;;;;;;;11.63;9.68;;;18.70;36.30;;;;;;5024978;28;20033;-80
2022/03/21 09:24:35;;;;;;;13.10;10.65;;;18.90;35.70;;;;;;5024856;28;20034;-80
2022/03/21 09:27:01;;;;;;;19.38;11.75;;;19.00;36.10;;;;;;5019752;28;20049;-80
2022/03/21 09:29:27;;;;;;;14.13;10.98;;;18.40;36.40;;;;;;5027221;28;20418;-80
2022/03/21 09:31:53;;;;;;;12.57;11.13;;;18.70;36.00;;;;;;5031516;28;20036;-80
2022/03/21 09:34:19;;;;;;;15.90;12.80;;;17.80;37.10;;;;;;5028691;28;20033;-79
2022/03/21 09:36:47;;;;;;;11.52;10.32;;;16.30;38.30;;;;;;5017777;28;20038;-79
2022/03/21 09:39:14;;;;;;;23.92;11.15;;;17.50;37.20;;;;;;5027998;28;20044;-80
2022/03/21 09:41:41;;;;;;;11.95;10.57;;;18.30;36.60;;;;;;5025704;28;20072;-79
2022/03/21 09:44:09;;;;;;;17.48;11.25;;;18.10;36.00;;;;;;5027772;28;20026;-80
2022/03/21 09:46:38;;;;;;;13.30;12.00;;;18.70;36.80;;;;;;5029436;28;20041;-80
2022/03/21 09:49:07;;;;;;;19.35;10.50;;;17.80;36.90;;;;;;5030728;28;20478;-80
2022/03/21 09:51:34;;;;;;;14.18;12.73;;;18.00;36.40;;;;;;5033329;28;20033;-80
2022/03/21 09:54:01;;;;;;;16.67;12.55;;;17.80;36.30;;;;;;5030083;28;20036;-80
2022/03/21 09:56:28;;;;;;;14.95;11.70;;;17.50;37.50;;;;;;5030620;28;20033;-78
2022/03/21 09:58:59;;;;;;;13.77;12.20;;;16.80;38.10;;;;;;5025805;28;20044;-79
2022/03/21 10:01:27;;;;;;;12.73;10.77;;;16.90;38.20;;;;;;5029825;28;20067;-79
2022/03/21 10:03:53;;;;;;;15.85;11.52;;;16.30;39.20;;;;;;5029572;28;20033;-79
2022/03/21 10:06:32;;;;;;;19.45;13.55;;;16.40;39.40;;;;;;5030118;28;20033;-79
2022/03/21 10:09:13;;;;;;;15.35;11.57;;;16.30;39.20;;;;;;5035184;28;20033;-78
2022/03/21 10:11:56;;;;;;;14.55;11.48;;;16.20;39.20;;;;;;5031062;28;20037;-79
2022/03/21 10:14:29;;;;;;;14.63;11.45;;;16.40;38.70;;;;;;5032871;28;20151;-79
2022/03/21 10:17:07;;;;;;;17.60;12.85;;;16.20;38.60;;;;;;5015400;28;20089;-78
2022/03/21 10:19:46;;;;;;;15.07;10.73;;;15.90;39.80;;;;;;5033783;28;20040;-79
2022/03/21 10:22:15;;;;;;;13.45;11.05;;;16.00;39.70;;;;;;5031666;28;20034;-79
2022/03/21 10:24:43;;;;;;;20.17;12.48;;;15.80;39.70;;;;;;5034156;28;20480;-80
2022/03/21 10:27:36;;;;;;;18.63;12.35;;;15.50;40.30;;;;;;5033480;28;20029;-79
2022/03/21 10:30:15;;;;;;;14.32;10.27;;;14.60;40.90;;;;;;5030356;28;20076;-79
2022/03/21 10:32:43;;;;;;;19.85;12.27;;;14.70;41.60;;;;;;5025492;28;20033;-78
2022/03/21 10:35:12;;;;;;;19.15;11.05;;;14.70;41.30;;;;;;5031817;28;20025;-78
2022/03/21 10:37:44;;;;;;;18.00;12.80;;;14.70;41.70;;;;;;5030886;28;20455;-77
2022/03/21 10:40:41;;;;;;;21.50;12.50;;;14.70;41.80;;;;;;5042084;28;20037;-78
2022/03/21 10:43:16;;;;;;;15.73;12.00;;;14.80;42.00;;;;;;5027048;28;20037;-78
2022/03/21 10:45:53;;;;;;;13.82;11.50;;;14.70;42.50;;;;;;5030385;28;20044;-78
2022/03/21 10:48:35;;;;;;;14.10;11.27;;;15.00;42.00;;;;;;5025908;28;20048;-76
2022/03/21 10:51:03;;;;;;;16.13;11.75;;;15.20;42.60;;;;;;5019572;28;20049;-77
2022/03/21 10:53:36;;;;;;;13.75;10.65;;;15.50;41.90;;;;;;5018759;28;20034;-76
2022/03/21 10:56:09;;;;;;;14.07;10.68;;;15.30;41.90;;;;;;5027860;28;21855;-76
2022/03/21 10:58:47;;;;;;;13.30;10.80;;;15.20;42.40;;;;;;5028140;28;20080;-76
2022/03/21 11:01:13;;;;;;;16.95;10.30;;;15.00;42.80;;;;;;5033763;28;20029;-77
2022/03/21 11:03:41;;;;;;;13.27;10.88;;;15.40;43.00;;;;;;5030897;28;20375;-76
2022/03/21 11:06:08;;;;;;;23.20;11.10;;;15.60;42.30;;;;;;5032781;28;20385;-76
2022/03/21 11:08:36;;;;;;;17.40;11.45;;;15.70;42.90;;;;;;5029910;28;20109;-76
2022/03/21 11:11:04;;;;;;;12.75;11.23;;;15.50;41.80;;;;;;5020260;28;20033;-77
2022/03/21 11:13:32;;;;;;;15.70;11.02;;;15.50;42.50;;;;;;5031138;28;20029;-76
2022/03/21 11:15:59;;;;;;;13.88;11.00;;;15.70;41.90;;;;;;5028829;28;20048;-76
2022/03/21 11:18:28;;;;;;;13.02;11.55;;;15.70;42.00;;;;;;5030970;28;20042;-76
2022/03/21 11:20:57;;;;;;;15.13;10.63;;;15.50;41.90;;;;;;5030470;28;20036;-76
2022/03/21 11:23:25;;;;;;;14.05;10.00;;;15.90;41.90;;;;;;5017907;28;20029;-76
2022/03/21 11:26:11;;;;;;;13.07;10.45;;;16.10;42.00;;;;;;5026495;28;20406;-76
2022/03/21 11:28:57;;;;;;;10.55;9.45;;;15.90;41.50;;;;;;5028033;28;20044;-76
2022/03/21 11:31:53;;;;;;;15.02;10.20;;;15.80;42.30;;;;;;5027260;28;20032;-76
2022/03/21 11:34:57;;;;;;;17.77;10.95;;;16.00;42.40;;;;;;5034757;28;20476;-76
2022/03/21 11:37:29;;;;;;;14.15;10.80;;;15.80;42.10;;;;;;5031413;28;20033;-76
2022/03/21 11:40:34;;;;;;;14.50;11.15;;;15.80;42.40;;;;;;5017102;28;20046;-75
2022/03/21 11:43:17;;;;;;;16.70;11.60;;;15.80;42.80;;;;;;5014871;28;20033;-74
2022/03/21 11:45:53;;;;;;;13.70;10.57;;;16.10;42.70;;;;;;5025031;28;20037;-75
2022/03/21 11:48:19;;;;;;;16.73;11.30;;;16.40;42.50;;;;;;5023658;28;20037;-75
2022/03/21 11:51:07;;;;;;;14.80;10.57;;;16.60;41.90;;;;;;5025404;28;20040;-75
2022/03/21 11:53:33;;;;;;;13.20;10.40;;;16.40;42.10;;;;;;5020943;28;20030;-75
2022/03/21 11:56:00;;;;;;;20.60;11.75;;;16.50;41.80;;;;;;5020982;28;20485;-75
2022/03/21 11:58:38;;;;;;;15.27;11.10;;;16.70;40.90;;;;;;5023382;28;20061;-75
2022/03/21 12:01:13;;;;;;;13.25;9.27;;;16.80;42.00;;;;;;5017028;28;20029;-75
2022/03/21 12:03:43;;;;;;;16.48;9.48;;;16.40;41.30;;;;;;5026429;28;20042;-75
2022/03/21 12:06:27;;;;;;;18.85;9.38;;;16.60;42.00;;;;;;5018735;28;20038;-75
2022/03/21 12:08:56;;;;;;;16.65;11.35;;;16.60;41.60;;;;;;5013677;28;20046;-75
2022/03/21 12:11:37;;;;;;;12.35;10.38;;;16.70;41.90;;;;;;5014845;28;20034;-75
2022/03/21 12:14:26;;;;;;;12.45;9.80;;;16.80;41.50;;;;;;5026630;28;20030;-75
2022/03/21 12:17:01;;;;;;;12.70;10.35;;;17.20;42.10;;;;;;5028630;28;20053;-76
2022/03/21 12:19:48;;;;;;;14.48;10.68;;;17.00;41.10;;;;;;5025257;28;20045;-75
2022/03/21 12:22:43;;;;;;;18.20;10.63;;;16.90;41.50;;;;;;5016977;28;20041;-76
2022/03/21 12:25:11;;;;;;;14.80;9.27;;;16.60;41.70;;;;;;5016051;28;20046;-75
2022/03/21 12:27:51;;;;;;;13.55;10.52;;;16.90;42.40;;;;;;5030850;28;20485;-76
2022/03/21 12:30:30;;;;;;;12.53;10.30;;;16.80;42.00;;;;;;5030324;28;20471;-76
2022/03/21 12:33:09;;;;;;;13.23;9.40;;;17.10;42.50;;;;;;5020820;28;20037;-76
2022/03/21 12:35:39;;;;;;;9.70;8.15;;;17.50;41.40;;;;;;5012134;28;20495;-76
2022/03/21 12:38:23;;;;;;;11.55;7.82;;;17.50;41.70;;;;;;5041612;28;20034;-77
2022/03/21 12:40:53;;;;;;;11.60;7.35;;;17.40;41.30;;;;;;5021384;28;20042;-76
2022/03/21 12:43:32;;;;;;;10.50;7.95;;;17.60;41.30;;;;;;5027843;28;20048;-76
2022/03/21 12:46:04;;;;;;;12.70;7.32;;;17.60;42.00;;;;;;5028426;28;20655;-76
2022/03/21 12:48:33;;;;;;;11.27;7.65;;;17.50;41.20;;;;;;5027367;28;20029;-75
2022/03/21 12:51:00;;;;;;;10.57;7.60;;;17.50;41.40;;;;;;5020738;28;20033;-75
2022/03/21 12:53:44;;;;;;;11.02;7.57;;;17.50;42.20;;;;;;5014541;28;20033;-75
2022/03/21 12:56:12;;;;;;;15.98;7.38;;;18.00;42.10;;;;;;5031005;28;20383;-75
2022/03/21 12:58:42;;;;;;;14.50;9.25;;;17.60;41.40;;;;;;5025459;28;20394;-77
2022/03/21 13:01:09;;;;;;;13.60;8.88;;;17.70;42.30;;;;;;5032274;28;20037;-76
2022/03/21 13:03:35;;;;;;;14.27;8.57;;;18.10;41.60;;;;;;5017418;28;20040;-75
2022/03/21 13:11:34;;;;;;;13.15;9.27;;;17.90;41.40;;;;;;5025524;28;20386;-76